Time;durP1;ratioP1;P1;durP2;ratioP2;P2;SDS_P1;SDS_P2;PMS_P1;PMS_P2;Temp;Humidity;BMP_temperature;BMP_pressure;BME280_temperature;BME280_humidity;BME280_pressure;Samples;Min_cycle;Max_cycle;Signal;HPM_P1;HPM_P2
2023/03/11 00:00:29;;;;;;;2.50;2.30;;;;;;;10.51;79.54;93116.25;5118496;28;20196;-75
2023/03/11 00:02:59;;;;;;;2.70;2.40;;;;;;;10.45;79.81;93153.69;5118909;28;20180;-75
2023/03/11 00:05:27;;;;;;;1.60;1.50;;;;;;;10.46;79.67;93134.00;5118807;28;20619;-75
2023/03/11 00:07:55;;;;;;;1.50;1.40;;;;;;;10.51;79.97;93127.28;5117986;28;20218;-75
2023/03/11 00:10:24;;;;;;;4.05;1.33;;;;;;;10.56;79.66;93118.59;5118116;28;20202;-75
2023/03/11 00:12:51;;;;;;;2.88;1.42;;;;;;;10.51;79.52;93128.06;5117365;28;20207;-75
2023/03/11 00:15:18;;;;;;;2.55;1.40;;;;;;;10.50;80.10;93117.44;5118566;28;20259;-75
2023/03/11 00:17:45;;;;;;;2.50;1.30;;;;;;;10.50;79.81;93118.22;5117370;28;20203;-75
2023/03/11 00:20:19;;;;;;;1.50;1.02;;;;;;;10.52;79.45;93118.59;5117761;28;20537;-75
2023/03/11 00:22:46;;;;;;;1.25;1.10;;;;;;;10.53;79.08;93124.91;5117108;28;20196;-75
2023/03/11 00:25:14;;;;;;;1.95;1.10;;;;;;;10.53;78.87;93117.44;5117674;28;20210;-76
2023/03/11 00:27:41;;;;;;;1.10;1.00;;;;;;;10.54;78.24;93109.94;5117726;28;20206;-75
2023/03/11 00:30:09;;;;;;;1.20;1.10;;;;;;;10.50;78.52;93114.69;5118028;28;20195;-75
2023/03/11 00:32:36;;;;;;;1.00;0.90;;;;;;;10.49;78.39;93097.34;5118059;28;20536;-75
2023/03/11 00:35:03;;;;;;;0.80;0.80;;;;;;;10.48;78.52;93103.28;5116225;28;20227;-75
2023/03/11 00:37:31;;;;;;;1.13;0.80;;;;;;;10.48;78.16;93109.56;5117559;28;20191;-75
2023/03/11 00:39:59;;;;;;;0.75;0.75;;;;;;;10.49;77.98;93099.31;5116845;28;20195;-75
2023/03/11 00:42:28;;;;;;;0.90;0.90;;;;;;;10.51;78.17;93108.00;5116819;28;20231;-75
2023/03/11 00:44:54;;;;;;;1.00;1.00;;;;;;;10.48;78.54;93106.81;5118105;28;20202;-75
2023/03/11 00:47:21;;;;;;;0.68;0.68;;;;;;;10.47;78.55;93099.72;5117246;28;20194;-75
2023/03/11 00:49:48;;;;;;;0.90;0.90;;;;;;;10.50;78.23;93101.69;5118017;28;20212;-75
2023/03/11 00:52:14;;;;;;;0.93;0.70;;;;;;;10.52;78.17;93082.00;5117043;28;20192;-75
2023/03/11 00:54:43;;;;;;;0.80;0.80;;;;;;;10.52;77.87;93065.44;5117420;28;20180;-75
2023/03/11 00:57:09;;;;;;;1.00;1.00;;;;;;;10.48;77.96;93064.69;5117060;28;20627;-75
2023/03/11 00:59:36;;;;;;;0.90;0.90;;;;;;;10.46;78.69;93054.06;5116725;28;20203;-75
2023/03/11 01:02:03;;;;;;;0.80;0.80;;;;;;;10.46;78.56;93050.53;5116623;28;20200;-75
2023/03/11 01:04:30;;;;;;;1.00;1.00;;;;;;;10.44;78.93;93050.91;5117508;28;20208;-74
2023/03/11 01:06:57;;;;;;;2.75;0.90;;;;;;;10.48;78.95;93051.69;5117668;28;20184;-76
2023/03/11 01:09:23;;;;;;;1.10;1.00;;;;;;;10.44;78.62;93045.41;5117484;28;20210;-75
2023/03/11 01:11:53;;;;;;;1.15;1.08;;;;;;;10.45;78.98;93055.25;5117597;28;20192;-75
2023/03/11 01:14:20;;;;;;;1.50;1.10;;;;;;;10.45;78.80;93049.72;5116892;28;20219;-75
2023/03/11 01:16:47;;;;;;;1.02;1.00;;;;;;;10.46;79.26;93034.78;5117321;28;20198;-75
2023/03/11 01:19:14;;;;;;;1.40;1.30;;;;;;;10.46;79.66;93040.28;5117343;28;20600;-75
2023/03/11 01:21:41;;;;;;;1.00;1.00;;;;;;;10.47;79.40;93021.78;5116488;28;20199;-75
2023/03/11 01:24:09;;;;;;;1.52;1.00;;;;;;;10.50;78.91;93007.19;5117192;27;20202;-75
2023/03/11 01:26:35;;;;;;;1.20;1.10;;;;;;;10.49;78.62;93000.88;5116336;28;20223;-75
2023/03/11 01:29:04;;;;;;;1.15;1.05;;;;;;;10.51;78.56;92975.69;5116872;28;20218;-75
2023/03/11 01:31:31;;;;;;;2.05;1.30;;;;;;;10.52;78.03;92969.75;5116815;28;20184;-75
2023/03/11 01:33:58;;;;;;;3.70;1.50;;;;;;;10.57;77.68;92976.84;5116347;28;20299;-75
2023/03/11 01:36:25;;;;;;;1.50;1.40;;;;;;;10.63;77.27;92975.22;5117237;28;20187;-75
2023/03/11 01:38:51;;;;;;;1.65;1.30;;;;;;;10.67;77.35;92964.16;5117029;28;20180;-75
2023/03/11 01:41:18;;;;;;;2.67;1.65;;;;;;;10.74;77.34;92964.09;5116867;28;20176;-76
2023/03/11 01:43:51;;;;;;;1.70;1.38;;;;;;;10.73;77.60;92959.78;5133338;27;20540;-75
2023/03/11 01:46:23;;;;;;;1.98;1.52;;;;;;;10.77;77.56;92963.31;5137336;27;20183;-75
2023/03/11 01:48:51;;;;;;;1.92;1.40;;;;;;;10.70;78.37;92966.88;5119120;27;20279;-75
2023/03/11 01:51:21;;;;;;;3.10;2.70;;;;;;;10.62;78.47;92992.16;5137082;27;20182;-76
2023/03/11 01:53:48;;;;;;;3.70;3.40;;;;;;;10.41;78.94;92998.56;5119267;27;20199;-75
2023/03/11 01:56:15;;;;;;;3.03;2.67;;;;;;;10.25;79.90;92993.53;5137290;27;20198;-75
2023/03/11 01:58:45;;;;;;;2.92;2.50;;;;;;;10.26;79.40;92993.13;5118821;27;20199;-75
2023/03/11 02:01:12;;;;;;;2.35;1.77;;;;;;;10.31;79.49;92989.97;5119225;27;20194;-75
2023/03/11 02:03:41;;;;;;;2.13;1.70;;;;;;;10.39;78.79;92995.47;5119546;27;20322;-75
2023/03/11 02:06:11;;;;;;;1.70;1.60;;;;;;;10.46;78.66;93009.97;5118979;27;20243;-75
2023/03/11 02:08:38;;;;;;;1.40;1.30;;;;;;;10.49;76.98;93008.38;5118634;27;20214;-75
2023/03/11 02:11:06;;;;;;;1.20;1.10;;;;;;;10.49;75.11;93000.09;5118893;27;20195;-75
2023/03/11 02:13:34;;;;;;;1.10;1.10;;;;;;;10.54;73.85;93008.75;5118889;27;20202;-74
2023/03/11 02:16:01;;;;;;;1.00;1.00;;;;;;;10.62;73.75;93022.50;5136723;27;20183;-75
2023/03/11 02:18:28;;;;;;;0.93;0.93;;;;;;;10.70;73.44;93010.22;5136615;27;20198;-77
2023/03/11 02:21:04;;;;;;;0.90;0.90;;;;;;;10.69;71.96;93025.19;5136717;27;20179;-75
2023/03/11 02:23:35;;;;;;;0.93;0.93;;;;;;;10.66;71.66;93021.28;5118514;27;20535;-75
2023/03/11 02:26:08;;;;;;;0.90;0.90;;;;;;;10.60;71.39;93042.97;5118444;27;20550;-75
2023/03/11 02:28:37;;;;;;;1.08;0.80;;;;;;;10.58;70.51;93045.34;5118240;27;20240;-75
2023/03/11 02:31:04;;;;;;;1.40;1.10;;;;;;;10.59;70.40;93044.16;5118638;27;20199;-75
2023/03/11 02:33:32;;;;;;;1.05;0.95;;;;;;;10.63;69.71;93038.63;5118117;27;20272;-75
2023/03/11 02:35:59;;;;;;;1.00;1.00;;;;;;;10.70;69.91;93051.56;5118654;27;20203;-75
2023/03/11 02:38:26;;;;;;;1.00;0.95;;;;;;;10.73;69.58;93048.81;5118581;27;20199;-75
2023/03/11 02:40:55;;;;;;;1.13;1.00;;;;;;;10.75;69.58;93043.69;5118131;27;20195;-75
2023/03/11 02:43:32;;;;;;;1.70;1.10;;;;;;;10.75;69.14;93040.91;5118070;27;20238;-75
2023/03/11 02:46:01;;;;;;;1.00;1.00;;;;;;;10.77;68.58;93043.25;5118511;27;20209;-75
2023/03/11 02:48:29;;;;;;;1.08;0.98;;;;;;;10.77;67.63;93060.59;5135735;27;20255;-74
2023/03/11 02:50:56;;;;;;;2.10;1.10;;;;;;;10.79;68.27;93051.94;5117660;27;20206;-75
2023/03/11 02:53:23;;;;;;;1.30;1.05;;;;;;;10.80;69.04;93048.75;5118272;28;20198;-75
2023/03/11 02:55:50;;;;;;;1.13;1.00;;;;;;;10.79;68.42;93040.91;5118363;28;20210;-75
2023/03/11 02:58:16;;;;;;;1.50;1.23;;;;;;;10.80;68.56;93036.94;5123048;27;20191;-75
2023/03/11 03:00:43;;;;;;;0.90;0.90;;;;;;;10.80;68.55;93042.47;5125194;27;20203;-75
2023/03/11 03:03:11;;;;;;;0.82;0.82;;;;;;;10.79;67.98;93036.16;5125368;27;20194;-75
2023/03/11 03:05:38;;;;;;;0.70;0.70;;;;;;;10.81;68.02;93041.28;5125491;27;20206;-75
2023/03/11 03:08:05;;;;;;;1.60;0.90;;;;;;;10.78;68.88;93047.59;5125261;27;20205;-76
2023/03/11 03:10:32;;;;;;;0.90;0.90;;;;;;;10.80;68.39;93047.97;5142969;27;20199;-75
2023/03/11 03:12:59;;;;;;;0.80;0.80;;;;;;;10.74;68.64;93047.59;5125223;27;20193;-75
2023/03/11 03:15:26;;;;;;;1.00;0.90;;;;;;;10.70;69.02;93038.56;5125183;27;20202;-75
2023/03/11 03:17:53;;;;;;;0.77;0.77;;;;;;;10.73;68.70;93043.28;5125138;27;20191;-75
2023/03/11 03:20:22;;;;;;;0.93;0.93;;;;;;;10.72;68.66;93046.47;5124756;27;20186;-75
2023/03/11 03:22:50;;;;;;;0.80;0.80;;;;;;;10.75;68.47;93053.94;5124817;27;20190;-75
2023/03/11 03:25:17;;;;;;;0.80;0.80;;;;;;;10.75;67.91;93048.41;5125102;27;20224;-75
2023/03/11 03:27:44;;;;;;;0.80;0.80;;;;;;;10.76;67.71;93061.00;5124793;27;20199;-75
2023/03/11 03:30:11;;;;;;;0.80;0.80;;;;;;;10.77;67.49;93052.31;5124953;27;20210;-75
2023/03/11 03:32:38;;;;;;;0.80;0.80;;;;;;;10.80;67.25;93051.53;5125710;27;20195;-75
2023/03/11 03:35:06;;;;;;;0.60;0.60;;;;;;;10.80;65.87;93047.97;5125277;27;20207;-75
2023/03/11 03:37:36;;;;;;;0.70;0.70;;;;;;;10.81;65.71;93047.56;5125176;27;20187;-75
2023/03/11 03:40:06;;;;;;;0.75;0.75;;;;;;;10.81;65.66;93053.06;5125494;27;20203;-75
2023/03/11 03:42:33;;;;;;;0.70;0.70;;;;;;;10.82;65.84;93059.38;5121827;28;20242;-75
2023/03/11 03:45:00;;;;;;;0.80;0.80;;;;;;;10.82;65.42;93056.63;5121709;28;20217;-75
2023/03/11 03:47:27;;;;;;;0.75;0.75;;;;;;;10.83;64.82;93049.94;5121962;28;20199;-75
2023/03/11 03:49:54;;;;;;;0.70;0.70;;;;;;;10.84;64.52;93048.75;5121820;28;20204;-75
2023/03/11 03:52:20;;;;;;;0.70;0.70;;;;;;;10.90;63.73;93060.16;5121634;28;20631;-75
2023/03/11 03:54:49;;;;;;;0.60;0.60;;;;;;;10.93;62.64;93056.56;5121539;28;20195;-75
2023/03/11 03:57:15;;;;;;;0.77;0.77;;;;;;;10.93;62.94;93038.06;5121748;28;20203;-76
2023/03/11 03:59:42;;;;;;;0.60;0.60;;;;;;;10.96;63.04;93036.44;5121354;28;20614;-75
2023/03/11 04:02:09;;;;;;;0.68;0.68;;;;;;;11.00;63.14;93037.19;5121749;28;20199;-75
2023/03/11 04:04:36;;;;;;;0.70;0.70;;;;;;;11.01;63.68;93047.06;5120807;28;20199;-76
2023/03/11 04:07:04;;;;;;;1.08;1.00;;;;;;;11.02;63.74;93040.34;5121050;28;20207;-76
2023/03/11 04:09:31;;;;;;;0.80;0.80;;;;;;;11.00;63.64;93035.25;5118115;28;20219;-76
2023/03/11 04:11:59;;;;;;;0.60;0.60;;;;;;;11.00;63.66;93031.69;5118125;28;20191;-75
2023/03/11 04:14:47;;;;;;;0.77;0.77;;;;;;;10.95;63.72;93032.13;5118504;28;20199;-76
2023/03/11 04:17:16;;;;;;;0.90;0.90;;;;;;;10.98;63.16;93056.16;5118082;28;20276;-77
2023/03/11 04:19:43;;;;;;;0.82;0.82;;;;;;;10.97;63.75;93052.59;5118213;28;20274;-77
2023/03/11 04:22:10;;;;;;;0.70;0.70;;;;;;;10.97;63.78;93043.53;5117461;28;20504;-76
2023/03/11 04:24:37;;;;;;;0.80;0.80;;;;;;;10.97;63.48;93046.31;5117540;28;20203;-77
2023/03/11 04:27:05;;;;;;;0.80;0.80;;;;;;;10.97;63.28;93051.81;5117289;28;20192;-76
2023/03/11 04:29:32;;;;;;;0.88;0.80;;;;;;;10.97;63.00;93046.31;5117021;28;20223;-76
2023/03/11 04:31:59;;;;;;;0.80;0.80;;;;;;;10.99;63.07;93047.44;5117388;28;20204;-76
2023/03/11 04:34:26;;;;;;;1.65;1.33;;;;;;;10.99;62.17;93052.97;5117319;28;20208;-77
2023/03/11 04:36:53;;;;;;;1.08;1.08;;;;;;;10.98;61.41;93050.63;5117584;28;20195;-76
2023/03/11 04:39:20;;;;;;;0.95;0.95;;;;;;;11.00;61.53;93053.75;5117951;28;20199;-76
2023/03/11 04:41:47;;;;;;;0.80;0.80;;;;;;;11.03;62.51;93055.69;5117684;28;20195;-74
2023/03/11 04:44:15;;;;;;;0.60;0.60;;;;;;;11.05;62.79;93056.09;5117058;28;20552;-74
2023/03/11 04:46:42;;;;;;;1.45;1.05;;;;;;;11.03;62.45;93045.44;5117354;28;20192;-74
2023/03/11 04:49:09;;;;;;;0.80;0.80;;;;;;;11.02;62.24;93051.38;5116926;28;20187;-74
2023/03/11 04:51:35;;;;;;;0.70;0.70;;;;;;;11.03;62.69;93053.72;5116923;28;20241;-74
2023/03/11 04:54:02;;;;;;;0.90;0.90;;;;;;;11.05;62.33;93061.63;5116767;28;20204;-75
2023/03/11 04:56:29;;;;;;;1.00;0.90;;;;;;;11.03;62.08;93064.75;5117541;28;20194;-73
2023/03/11 04:58:56;;;;;;;0.80;0.80;;;;;;;11.03;61.69;93069.50;5117212;28;20203;-72
2023/03/11 05:01:24;;;;;;;0.80;0.80;;;;;;;10.98;61.67;93069.94;5117279;28;20192;-72
2023/03/11 05:03:51;;;;;;;1.00;1.00;;;;;;;10.91;61.66;93067.22;5117545;28;20203;-72
2023/03/11 05:06:17;;;;;;;0.90;0.90;;;;;;;10.95;61.86;93085.31;5117553;28;20196;-71
2023/03/11 05:08:44;;;;;;;1.05;0.95;;;;;;;10.94;61.80;93072.72;5117184;28;20192;-72
2023/03/11 05:11:11;;;;;;;0.88;0.88;;;;;;;10.96;61.69;93077.81;5118047;28;20208;-72
2023/03/11 05:13:38;;;;;;;0.90;0.90;;;;;;;10.96;61.39;93086.88;5117130;28;20199;-72
2023/03/11 05:16:05;;;;;;;0.90;0.90;;;;;;;10.96;61.90;93092.38;5116696;28;20188;-72
2023/03/11 05:18:33;;;;;;;0.98;0.98;;;;;;;10.99;62.00;93101.84;5116506;28;20203;-71
2023/03/11 05:21:00;;;;;;;0.80;0.80;;;;;;;11.01;61.96;93097.50;5116109;28;20559;-72
2023/03/11 05:23:27;;;;;;;0.80;0.80;;;;;;;10.98;62.08;93101.06;5116765;28;20206;-78
2023/03/11 05:25:53;;;;;;;1.10;1.00;;;;;;;10.93;61.94;93106.19;5116154;28;20584;-76
2023/03/11 05:28:20;;;;;;;1.08;1.00;;;;;;;10.91;62.35;93117.66;5116414;28;20203;-74
2023/03/11 05:30:47;;;;;;;1.10;1.00;;;;;;;10.92;62.50;93118.44;5115944;28;20223;-75
2023/03/11 05:33:14;;;;;;;1.25;1.10;;;;;;;10.92;62.40;93108.19;5116010;28;20206;-76
2023/03/11 05:35:42;;;;;;;1.45;1.35;;;;;;;10.96;62.36;93117.22;5116354;28;20191;-77
2023/03/11 05:38:09;;;;;;;1.63;1.52;;;;;;;10.99;62.51;93119.16;5116557;28;20192;-74
2023/03/11 05:40:36;;;;;;;1.23;1.13;;;;;;;10.99;62.12;93121.94;5116571;28;20215;-74
2023/03/11 05:43:02;;;;;;;1.20;1.20;;;;;;;10.98;62.43;93128.63;5116022;28;20227;-78
2023/03/11 05:45:29;;;;;;;1.10;1.00;;;;;;;10.96;62.64;93133.75;5116078;28;20207;-73
2023/03/11 05:47:56;;;;;;;1.00;1.00;;;;;;;10.96;62.69;93128.25;5115871;28;20196;-76
2023/03/11 05:50:23;;;;;;;1.55;1.45;;;;;;;10.97;63.42;93140.88;5116622;28;20211;-75
2023/03/11 05:52:51;;;;;;;1.30;1.20;;;;;;;10.98;63.20;93134.16;5116242;28;20207;-76
2023/03/11 05:55:18;;;;;;;1.30;1.20;;;;;;;11.02;63.29;93134.91;5116115;28;20202;-75
2023/03/11 05:57:45;;;;;;;1.40;1.30;;;;;;;11.05;63.05;93149.88;5115465;28;20199;-77
2023/03/11 06:00:12;;;;;;;1.50;1.40;;;;;;;11.05;63.51;93153.44;5115755;28;20196;-76
2023/03/11 06:02:40;;;;;;;1.50;1.40;;;;;;;11.07;63.48;93153.00;5115539;28;20596;-75
2023/03/11 06:05:08;;;;;;;2.20;1.52;;;;;;;11.01;63.63;93155.44;5115554;28;20196;-74
2023/03/11 06:07:35;;;;;;;1.60;1.50;;;;;;;10.98;64.16;93155.44;5115435;28;20294;-76
2023/03/11 06:10:07;;;;;;;1.58;1.48;;;;;;;10.96;64.26;93161.34;5116117;28;20219;-77
2023/03/11 06:12:34;;;;;;;1.60;1.50;;;;;;;10.92;64.49;93159.78;5116013;28;20221;-75
2023/03/11 06:15:01;;;;;;;1.70;1.60;;;;;;;10.93;64.75;93172.41;5119467;28;20282;-76
2023/03/11 06:17:28;;;;;;;1.50;1.40;;;;;;;10.94;65.11;93168.47;5116685;28;20290;-78
2023/03/11 06:19:55;;;;;;;1.70;1.60;;;;;;;10.95;65.76;93168.06;5116399;28;20206;-78
2023/03/11 06:22:22;;;;;;;1.77;1.67;;;;;;;10.96;65.68;93163.31;5115940;28;20650;-78
2023/03/11 06:24:49;;;;;;;2.25;2.03;;;;;;;10.99;66.13;93166.06;5117958;28;20235;-78
2023/03/11 06:27:17;;;;;;;2.08;1.58;;;;;;;10.97;65.48;93165.69;5116535;28;20190;-78
2023/03/11 06:29:44;;;;;;;1.98;1.88;;;;;;;10.94;66.00;93165.72;5116659;28;20184;-78
2023/03/11 06:32:11;;;;;;;1.98;1.67;;;;;;;10.90;65.66;93164.94;5115938;28;20196;-78
2023/03/11 06:34:37;;;;;;;1.85;1.75;;;;;;;10.88;65.52;93162.56;5117215;28;20195;-78
2023/03/11 06:37:04;;;;;;;1.85;1.63;;;;;;;10.92;65.67;93163.34;5116147;28;20204;-77
2023/03/11 06:39:31;;;;;;;2.58;2.38;;;;;;;10.95;65.90;93175.56;5116255;28;20505;-77
2023/03/11 06:41:58;;;;;;;2.17;1.70;;;;;;;10.94;65.58;93174.00;5117067;28;20203;-78
2023/03/11 06:44:27;;;;;;;2.63;1.92;;;;;;;10.95;65.54;93164.53;5137516;27;20281;-78
2023/03/11 06:46:54;;;;;;;1.60;1.50;;;;;;;10.95;64.58;93176.34;5119757;27;20183;-78
2023/03/11 06:49:21;;;;;;;2.17;1.40;;;;;;;10.96;64.72;93168.84;5120115;27;20202;-78
2023/03/11 06:51:48;;;;;;;2.10;1.70;;;;;;;10.99;64.96;93173.56;5119959;27;20224;-78
2023/03/11 06:54:14;;;;;;;1.85;1.75;;;;;;;10.98;64.46;93163.72;5119418;28;20199;-78
2023/03/11 06:56:41;;;;;;;1.88;1.73;;;;;;;10.99;64.34;93171.59;5119354;28;20199;-77
2023/03/11 06:59:08;;;;;;;2.03;1.70;;;;;;;11.01;64.48;93183.00;5119410;28;20194;-78
2023/03/11 07:01:37;;;;;;;1.80;1.70;;;;;;;11.04;64.69;93182.22;5119952;28;20286;-78
2023/03/11 07:04:03;;;;;;;1.77;1.50;;;;;;;11.05;64.64;93180.25;5119769;28;20201;-78
2023/03/11 07:06:30;;;;;;;1.67;1.58;;;;;;;11.07;64.89;93183.38;5119871;28;20649;-78
2023/03/11 07:08:57;;;;;;;2.33;1.80;;;;;;;11.12;64.98;93176.66;5120223;28;20531;-78
2023/03/11 07:11:26;;;;;;;1.70;1.60;;;;;;;11.11;64.61;93173.13;5119975;28;20545;-78
2023/03/11 07:13:54;;;;;;;2.30;2.10;;;;;;;11.08;65.01;93163.66;5121585;28;20191;-78
2023/03/11 07:16:22;;;;;;;2.28;2.05;;;;;;;11.14;65.14;93154.94;5119121;28;20199;-78
2023/03/11 07:18:51;;;;;;;2.65;2.05;;;;;;;11.13;65.13;93161.66;5118454;28;20201;-77
2023/03/11 07:21:19;;;;;;;2.95;1.88;;;;;;;11.18;64.53;93167.53;5117742;28;20191;-77
2023/03/11 07:23:48;;;;;;;1.80;1.70;;;;;;;11.23;63.46;93167.13;5118515;28;20255;-78
2023/03/11 07:26:16;;;;;;;2.13;1.95;;;;;;;11.28;63.66;93157.63;5119575;28;20255;-78
2023/03/11 07:28:44;;;;;;;2.42;1.50;;;;;;;11.30;62.90;93158.03;5121426;28;20271;-77
2023/03/11 07:31:12;;;;;;;1.63;1.30;;;;;;;11.30;62.71;93163.53;5117993;28;20223;-77
2023/03/11 07:33:39;;;;;;;1.23;1.20;;;;;;;11.32;62.08;93163.91;5119560;28;20205;-78
2023/03/11 07:36:09;;;;;;;1.45;1.35;;;;;;;11.33;62.18;93152.50;5123192;28;20242;-78
2023/03/11 07:38:36;;;;;;;1.67;1.40;;;;;;;11.45;62.18;93158.72;5122011;28;20199;-78
2023/03/11 07:41:05;;;;;;;1.30;1.20;;;;;;;11.51;61.43;93137.75;5121979;28;20187;-79
2023/03/11 07:43:32;;;;;;;1.30;1.20;;;;;;;11.62;61.05;93138.50;5124404;27;20329;-79
2023/03/11 07:46:04;;;;;;;2.67;1.15;;;;;;;11.71;60.89;93126.97;5145168;27;20187;-78
2023/03/11 07:48:31;;;;;;;1.63;1.20;;;;;;;11.80;60.15;93116.22;5126667;27;20312;-78
2023/03/11 07:51:03;;;;;;;1.40;1.30;;;;;;;11.92;60.25;93114.97;5126940;27;20766;-78
2023/03/11 07:53:31;;;;;;;1.40;1.30;;;;;;;12.03;60.22;93115.66;5125684;27;20629;-78
2023/03/11 07:55:59;;;;;;;1.48;1.38;;;;;;;12.14;60.77;93108.06;5126598;27;20209;-78
2023/03/11 07:58:26;;;;;;;1.25;1.15;;;;;;;12.28;58.98;93102.38;5127593;27;20266;-78
2023/03/11 08:00:55;;;;;;;2.00;1.50;;;;;;;12.41;58.15;93107.38;5123858;27;20195;-77
2023/03/11 08:03:22;;;;;;;2.03;1.65;;;;;;;12.42;58.29;93098.69;5121590;27;20195;-77
2023/03/11 08:05:49;;;;;;;1.58;1.35;;;;;;;12.50;57.74;93089.09;5121147;27;20199;-77
2023/03/11 08:08:17;;;;;;;1.35;1.25;;;;;;;12.55;56.81;93095.38;5121050;27;20203;-77
2023/03/11 08:10:45;;;;;;;2.88;1.48;;;;;;;12.61;56.34;93083.44;5120857;27;20222;-77
2023/03/11 08:13:12;;;;;;;1.70;1.60;;;;;;;12.74;55.95;93076.16;5121384;27;20198;-77
2023/03/11 08:15:39;;;;;;;2.13;1.80;;;;;;;12.77;54.57;93069.00;5121002;27;20290;-77
2023/03/11 08:18:06;;;;;;;1.30;1.20;;;;;;;12.85;54.52;93066.94;5120758;27;20187;-77
2023/03/11 08:20:33;;;;;;;1.95;1.70;;;;;;;12.96;54.64;93067.56;5120796;27;20289;-77
2023/03/11 08:22:59;;;;;;;2.00;1.40;;;;;;;13.01;54.44;93059.59;5121445;27;20529;-77
2023/03/11 08:25:26;;;;;;;1.30;1.20;;;;;;;13.07;54.91;93053.56;5138677;27;20606;-77
2023/03/11 08:27:55;;;;;;;1.42;1.33;;;;;;;13.12;54.31;93051.13;5120913;27;20198;-77
2023/03/11 08:30:22;;;;;;;2.35;2.00;;;;;;;13.16;54.23;93054.63;5120819;27;20645;-77
2023/03/11 08:32:49;;;;;;;2.20;1.70;;;;;;;13.18;53.86;93048.66;5120616;27;20199;-77
2023/03/11 08:35:16;;;;;;;1.60;1.42;;;;;;;13.27;53.67;93037.09;5120521;27;20199;-77
2023/03/11 08:37:43;;;;;;;2.10;1.50;;;;;;;13.35;53.70;93036.56;5120942;27;20195;-77
2023/03/11 08:40:11;;;;;;;2.20;1.60;;;;;;;13.45;51.84;93035.63;5120598;27;20191;-77
2023/03/11 08:42:38;;;;;;;2.30;2.10;;;;;;;13.60;52.76;93035.38;5120878;27;20338;-77
2023/03/11 08:45:08;;;;;;;2.83;2.20;;;;;;;13.76;52.43;93029.16;5120590;27;20199;-77
2023/03/11 08:47:35;;;;;;;2.53;1.60;;;;;;;13.87;51.71;93026.97;5120227;27;20195;-77
2023/03/11 08:50:03;;;;;;;2.20;1.60;;;;;;;13.95;51.91;93023.69;5120064;27;20199;-77
2023/03/11 08:52:29;;;;;;;1.73;1.63;;;;;;;14.08;52.61;93026.59;5120168;27;20239;-77
2023/03/11 08:54:57;;;;;;;1.42;1.33;;;;;;;14.17;50.80;93026.06;5119804;27;20195;-77
2023/03/11 08:57:24;;;;;;;1.30;1.20;;;;;;;14.21;49.96;93018.44;5120019;27;20202;-77
2023/03/11 08:59:51;;;;;;;1.52;1.42;;;;;;;14.34;50.05;93010.25;5120037;27;20226;-77
2023/03/11 09:02:19;;;;;;;2.10;1.90;;;;;;;14.51;50.32;93013.91;5120103;27;20205;-77
2023/03/11 09:04:46;;;;;;;1.40;1.30;;;;;;;14.61;49.55;93015.69;5121219;27;20210;-78
2023/03/11 09:07:14;;;;;;;1.75;1.40;;;;;;;14.74;49.23;93018.59;5120004;27;20194;-77
2023/03/11 09:09:41;;;;;;;1.90;1.50;;;;;;;14.79;49.43;93023.66;5120102;27;20197;-77
2023/03/11 09:12:12;;;;;;;1.63;1.52;;;;;;;14.80;49.16;93019.66;5119984;27;20222;-77
2023/03/11 09:14:39;;;;;;;1.38;1.20;;;;;;;14.78;48.71;93013.75;5119929;27;20206;-77
2023/03/11 09:17:06;;;;;;;1.88;1.35;;;;;;;14.73;48.58;93011.47;5119926;27;20547;-77
2023/03/11 09:19:34;;;;;;;1.63;1.52;;;;;;;14.69;48.72;93006.78;5119640;27;20202;-77
2023/03/11 09:22:02;;;;;;;1.48;1.38;;;;;;;14.62;48.56;93006.94;5119575;27;20290;-77
2023/03/11 09:24:30;;;;;;;1.10;1.10;;;;;;;14.72;48.37;92999.59;5119535;27;20199;-77
2023/03/11 09:26:57;;;;;;;1.48;1.38;;;;;;;14.88;48.44;93007.19;5119491;27;20201;-77
2023/03/11 09:29:24;;;;;;;1.60;1.50;;;;;;;15.08;48.31;92999.59;5119885;27;20559;-77
2023/03/11 09:31:51;;;;;;;1.13;1.10;;;;;;;15.21;48.26;93004.44;5119161;27;20317;-77
2023/03/11 09:34:18;;;;;;;1.85;1.30;;;;;;;15.26;46.85;92992.84;5120308;27;20214;-77
2023/03/11 09:36:46;;;;;;;1.38;1.27;;;;;;;15.41;47.53;92991.28;5119436;27;20201;-77
2023/03/11 09:39:13;;;;;;;1.42;1.33;;;;;;;15.46;46.34;92992.75;5119608;27;20203;-77
2023/03/11 09:41:47;;;;;;;2.17;1.30;;;;;;;15.49;45.92;92994.66;5119625;27;20209;-77
2023/03/11 09:44:18;;;;;;;1.40;1.30;;;;;;;15.54;45.72;93003.28;5137044;27;20231;-77
2023/03/11 09:47:09;;;;;;;1.35;1.25;;;;;;;15.61;46.18;92983.66;5119819;27;20274;-77
2023/03/11 09:49:52;;;;;;;1.40;1.30;;;;;;;15.75;45.73;92984.50;5119636;27;20200;-77
2023/03/11 09:52:25;;;;;;;2.22;1.40;;;;;;;15.92;44.34;92991.59;5119397;27;20221;-77
2023/03/11 09:54:53;;;;;;;1.70;1.40;;;;;;;15.97;42.84;92996.63;5119632;27;20333;-77
2023/03/11 09:57:23;;;;;;;1.45;1.35;;;;;;;16.05;43.30;92977.75;5119400;27;20191;-77
2023/03/11 09:59:50;;;;;;;1.75;1.48;;;;;;;16.45;42.14;92980.22;5119046;27;20191;-77
2023/03/11 10:02:18;;;;;;;1.48;1.30;;;;;;;16.64;41.01;93007.13;5119191;27;20198;-77
2023/03/11 10:04:51;;;;;;;1.48;1.20;;;;;;;16.63;40.40;93002.78;5119596;27;20209;-77
2023/03/11 10:07:23;;;;;;;1.27;1.20;;;;;;;16.39;40.90;92993.91;5118198;27;20191;-77
2023/03/11 10:09:52;;;;;;;1.50;1.40;;;;;;;16.05;41.29;92997.22;5136959;27;20171;-77
2023/03/11 10:12:25;;;;;;;1.83;1.60;;;;;;;15.75;42.07;92996.41;5119513;27;20222;-77
2023/03/11 10:15:05;;;;;;;1.80;1.70;;;;;;;15.59;43.94;92996.41;5119975;27;20206;-77
2023/03/11 10:17:43;;;;;;;1.17;1.17;;;;;;;15.47;43.18;93003.44;5120098;27;20203;-77
2023/03/11 10:20:15;;;;;;;1.58;1.23;;;;;;;15.35;43.76;93001.34;5120262;27;20218;-76
2023/03/11 10:22:47;;;;;;;2.10;1.90;;;;;;;15.23;43.56;93004.81;5119578;27;20199;-77
2023/03/11 10:25:16;;;;;;;1.52;1.42;;;;;;;15.16;44.06;93014.09;5119892;28;20282;-77
2023/03/11 10:27:47;;;;;;;1.27;1.20;;;;;;;15.07;43.72;93008.34;5121484;27;20202;-78
2023/03/11 10:30:20;;;;;;;1.30;1.20;;;;;;;14.96;43.69;93002.25;5121141;27;20276;-77
2023/03/11 10:32:51;;;;;;;1.40;1.30;;;;;;;14.88;43.28;92996.06;5120519;27;20219;-76
2023/03/11 10:35:21;;;;;;;1.42;1.25;;;;;;;14.79;43.11;92998.66;5137999;27;20610;-77
2023/03/11 10:37:52;;;;;;;1.42;1.20;;;;;;;14.66;43.13;92999.31;5120682;27;20290;-77
2023/03/11 10:40:25;;;;;;;1.30;1.20;;;;;;;14.58;43.51;92997.13;5120860;27;20201;-77
2023/03/11 10:42:52;;;;;;;1.38;1.17;;;;;;;14.52;44.07;93005.16;5115940;28;20742;-77
2023/03/11 10:45:22;;;;;;;1.58;1.38;;;;;;;14.44;44.40;93010.03;5117032;28;20199;-77
2023/03/11 10:47:49;;;;;;;1.30;1.20;;;;;;;14.38;45.19;93002.69;5116254;28;20192;-76
2023/03/11 10:50:17;;;;;;;1.35;1.30;;;;;;;14.28;45.94;93015.53;5117542;28;20180;-77
2023/03/11 10:52:45;;;;;;;1.52;1.42;;;;;;;14.21;46.12;93013.69;5116323;28;20651;-77
2023/03/11 10:55:18;;;;;;;1.40;1.30;;;;;;;14.27;46.37;93013.97;5115508;28;20298;-77
2023/03/11 10:57:46;;;;;;;1.40;1.30;;;;;;;14.31;46.15;93014.69;5116364;28;20574;-77
2023/03/11 11:00:29;;;;;;;1.80;1.67;;;;;;;14.35;46.16;93015.41;5116715;28;20192;-77
2023/03/11 11:02:58;;;;;;;1.85;1.73;;;;;;;14.40;46.48;93012.13;5117276;28;20187;-77
2023/03/11 11:05:31;;;;;;;2.85;1.88;;;;;;;14.58;46.19;93011.78;5116269;28;20627;-77
2023/03/11 11:08:07;;;;;;;2.15;1.85;;;;;;;14.95;46.62;93006.25;5116520;28;20253;-76
2023/03/11 11:10:36;;;;;;;1.75;1.40;;;;;;;15.36;46.18;93006.47;5116657;28;20201;-77
2023/03/11 11:13:17;;;;;;;1.50;1.40;;;;;;;15.78;44.91;93001.09;5117157;28;20465;-76
2023/03/11 11:15:55;;;;;;;2.22;1.55;;;;;;;15.75;45.96;92993.63;5116561;28;20195;-76
2023/03/11 11:18:23;;;;;;;2.22;1.75;;;;;;;15.67;45.26;92983.13;5117697;28;20237;-77
2023/03/11 11:21:00;;;;;;;2.03;1.92;;;;;;;15.41;45.55;92994.06;5120119;28;20198;-76
2023/03/11 11:23:33;;;;;;;1.67;1.50;;;;;;;15.17;45.56;92988.66;5120661;28;20207;-76
2023/03/11 11:26:03;;;;;;;1.67;1.58;;;;;;;15.00;44.60;92987.09;5120960;28;20191;-77
2023/03/11 11:28:31;;;;;;;1.60;1.50;;;;;;;14.90;44.89;92985.34;5102740;28;20196;-77
2023/03/11 11:31:00;;;;;;;1.45;1.30;;;;;;;14.86;44.62;92970.75;5119902;28;20192;-76
2023/03/11 11:33:28;;;;;;;2.03;1.80;;;;;;;14.81;45.02;92968.47;5120347;28;20223;-76
2023/03/11 11:35:57;;;;;;;2.78;1.70;;;;;;;14.77;45.52;92957.47;5121200;28;20199;-76
2023/03/11 11:38:25;;;;;;;2.15;1.63;;;;;;;14.76;46.26;92960.69;5120689;28;20294;-76